Granbury, Texas
Current Conditions -  °F | °C
As of 11:55 PM on Saturday 25 Oct 2014 (Local Time) from KGDJ Reporting Station
Clear Clear  
Wind Chill: 73°   Ceiling: Unl
Heat Index: 73°   Visibility: 10mi
Dew Point: 59°   Wind: 6mph
Humidity: 62%   Direction: 150°SSE
Pressure: 30.06"   Gusts: NA
Location:  32.44°N, 97.79°W
Report Text: KGDJ 260455Z AUTO 15005KT 10SM CLR 23/15 A3006 RMK AO2 T02270152
Loading
Personal Weather Stations






























Interactive Weather Map
Tropical Storm Tracking
New forecast layout! Learn more

10-Day Weather Forecast

Advertisements
Track Severe Weather on mobile